createdAt,value
2022-11-01T00:00:38.950Z,99592.41
2022-11-01T00:05:42.516Z,99593.28
2022-11-01T00:10:47.282Z,99591.50
2022-11-01T00:15:50.683Z,99590.59
2022-11-01T00:20:54.258Z,99587.94
2022-11-01T00:26:01.810Z,99583.63
2022-11-01T00:31:07.726Z,99592.31
2022-11-01T00:36:14.344Z,99596.66
2022-11-01T00:41:20.844Z,99590.41
2022-11-01T00:46:24.292Z,99592.84
2022-11-01T00:51:28.075Z,99597.28
2022-11-01T00:56:32.825Z,99593.88
2022-11-01T01:01:36.378Z,99592.13
2022-11-01T01:06:39.898Z,99587.72
2022-11-01T01:11:44.685Z,99588.53
2022-11-01T01:16:48.102Z,99597.25
2022-11-01T01:21:51.440Z,99589.38
2022-11-01T01:26:56.209Z,99597.03
2022-11-01T01:31:59.675Z,99584.69
2022-11-01T01:37:03.040Z,99587.41
2022-11-01T01:42:17.379Z,99597.81
2022-11-01T01:47:24.363Z,99584.81
2022-11-01T01:52:29.953Z,99586.53
2022-11-01T01:57:35.569Z,99585.56
2022-11-01T02:02:39.438Z,99587.13
2022-11-01T02:07:43.374Z,99593.31
2022-11-01T02:12:50.310Z,99594.06
2022-11-01T02:18:03.984Z,99598.44
2022-11-01T02:23:31.227Z,99601.94
2022-11-01T02:28:51.293Z,99606.19
2022-11-01T02:34:00.077Z,99611.41
2022-11-01T02:39:11.149Z,99616.34
2022-11-01T02:44:20.297Z,99605.97
2022-11-01T02:49:26.671Z,99620.75
2022-11-01T02:54:33.826Z,99612.06
2022-11-01T02:59:44.877Z,99616.41
2022-11-01T03:04:50.090Z,99612.78
2022-11-01T03:09:53.629Z,99615.31
2022-11-01T03:15:04.264Z,99616.84
2022-11-01T03:20:15.026Z,99616.84
2022-11-01T03:25:40.185Z,99610.84
2022-11-01T03:30:48.068Z,99607.44
2022-11-01T03:35:55.413Z,99613.56
2022-11-01T03:41:03.985Z,99608.38
2022-11-01T03:46:08.644Z,99616.84
2022-11-01T03:51:14.257Z,99622.00
2022-11-01T03:56:17.623Z,99623.72
2022-11-01T04:01:21.147Z,99623.72
2022-11-01T04:06:26.024Z,99621.13
2022-11-01T04:11:29.364Z,99626.38
2022-11-01T04:16:50.033Z,99620.91
2022-11-01T04:21:54.804Z,99622.69
2022-11-01T04:26:58.129Z,99620.13
2022-11-01T04:32:02.322Z,99629.50
2022-11-01T04:37:07.111Z,99631.28
2022-11-01T04:42:10.498Z,99627.81
2022-11-01T04:47:13.825Z,99632.13
2022-11-01T04:52:18.639Z,99630.31
2022-11-01T04:57:24.885Z,99642.25
2022-11-01T05:02:28.215Z,99636.22
2022-11-01T05:07:33.077Z,99640.72
2022-11-01T05:12:36.677Z,99641.63
2022-11-01T05:17:42.965Z,99642.59
2022-11-01T05:22:48.392Z,99654.84
2022-11-01T05:27:51.730Z,99652.38
2022-11-01T05:33:00.041Z,99669.94
2022-11-01T05:38:06.136Z,99663.22
2022-11-01T05:43:09.499Z,99672.19
2022-11-01T05:48:13.118Z,99676.84
2022-11-01T05:53:17.870Z,99677.13
2022-11-01T05:58:21.807Z,99681.72
2022-11-01T06:03:27.824Z,99680.16
2022-11-01T06:08:33.112Z,99679.41
2022-11-01T06:13:36.426Z,99689.94
2022-11-01T06:18:39.738Z,99689.94
2022-11-01T06:23:48.061Z,99695.06
2022-11-01T06:28:51.453Z,99697.56
2022-11-01T06:33:54.810Z,99700.88
2022-11-01T06:38:59.617Z,99697.13
2022-11-01T06:44:03.075Z,99706.47
2022-11-01T06:49:06.466Z,99710.66
2022-11-01T06:54:11.313Z,99701.50
2022-11-01T06:59:14.926Z,99703.19
2022-11-01T07:04:18.329Z,99704.44
2022-11-01T07:09:24.043Z,99701.75
2022-11-01T07:14:27.437Z,99709.19
2022-11-01T07:19:30.838Z,99707.91
2022-11-01T07:24:35.677Z,99701.31
2022-11-01T07:29:40.493Z,99694.69
2022-11-01T07:34:44.164Z,99695.72
2022-11-01T07:39:48.934Z,99688.59
2022-11-01T07:44:52.326Z,99693.66
2022-11-01T07:49:55.714Z,99695.59
2022-11-01T07:55:00.543Z,99693.88
2022-11-01T08:00:04.458Z,99686.28
2022-11-01T08:05:15.946Z,99691.06
2022-11-01T08:10:21.189Z,99689.97
2022-11-01T08:15:24.623Z,99682.50
2022-11-01T08:20:28.682Z,99679.19
2022-11-01T08:25:33.517Z,99677.00
2022-11-01T08:30:37.947Z,99671.75
2022-11-01T08:35:44.615Z,99680.66
2022-11-01T08:40:52.228Z,99680.41
2022-11-01T08:45:55.621Z,99673.69
2022-11-01T08:50:59.026Z,99670.16
2022-11-01T08:56:03.767Z,99673.88
2022-11-01T09:01:07.300Z,99668.81
2022-11-01T09:06:10.744Z,99653.00
2022-11-01T09:11:15.573Z,99663.34
2022-11-01T09:16:19.007Z,99650.53
2022-11-01T09:21:23.488Z,99651.69
2022-11-01T09:26:29.505Z,99640.72
2022-11-01T09:31:33.504Z,99639.22
2022-11-01T09:36:36.918Z,99638.34
2022-11-01T09:41:47.676Z,99629.41
2022-11-01T09:46:58.003Z,99630.97
2022-11-01T09:52:05.738Z,99634.00
2022-11-01T09:57:19.254Z,99622.75
2022-11-01T10:02:42.544Z,99624.91
2022-11-01T10:07:53.716Z,99627.03
2022-11-01T10:13:10.836Z,99617.94
2022-11-01T10:18:26.107Z,99620.50
2022-11-01T10:23:44.279Z,99610.13
2022-11-01T10:28:56.909Z,99607.97
2022-11-01T10:34:03.812Z,99607.38
2022-11-01T10:44:46.765Z,99591.16
2022-11-01T10:50:05.418Z,99586.59
2022-11-01T10:55:16.161Z,99581.13
2022-11-01T11:00:23.453Z,99572.72
2022-11-01T11:05:29.327Z,99565.09
2022-11-01T11:10:32.722Z,99568.84
2022-11-01T11:15:44.385Z,99559.56
2022-11-01T11:20:52.403Z,99561.56
2022-11-01T11:26:02.624Z,99560.25
2022-11-01T11:31:22.666Z,99546.03
2022-11-01T11:36:32.681Z,99558.38
2022-11-01T11:41:39.262Z,99556.78
2022-11-01T11:46:58.147Z,99540.84
2022-11-01T11:52:01.570Z,99541.91
2022-11-01T11:57:16.346Z,99535.41
2022-11-01T12:02:25.115Z,99529.94
2022-11-01T12:07:33.398Z,99525.53
2022-11-01T12:12:42.723Z,99524.41
2022-11-01T12:17:48.863Z,99514.75
2022-11-01T12:23:01.708Z,99516.00
2022-11-01T12:28:12.239Z,99519.41
2022-11-01T12:33:26.024Z,99518.84
2022-11-01T12:38:42.910Z,99518.06
2022-11-01T12:44:03.734Z,99511.78
2022-11-01T12:49:16.933Z,99515.53
2022-11-01T12:54:27.294Z,99508.97
2022-11-01T12:59:36.989Z,99506.34
2022-11-01T13:04:49.154Z,99512.31
2022-11-01T13:10:02.929Z,99511.72
2022-11-01T13:15:16.384Z,99513.50
2022-11-01T13:20:30.347Z,99508.41
2022-11-01T13:25:41.362Z,99497.66
2022-11-01T13:30:55.453Z,99496.84
2022-11-01T13:36:05.256Z,99498.13
2022-11-01T13:41:19.748Z,99483.56
2022-11-01T13:46:55.543Z,99503.75
2022-11-01T13:52:06.533Z,99491.06
2022-11-01T13:57:16.366Z,99494.94
2022-11-01T14:02:49.082Z,99492.91
2022-11-01T14:08:37.025Z,99487.38
2022-11-01T14:13:45.799Z,99489.44
2022-11-01T14:19:20.241Z,99490.03
2022-11-01T14:24:35.129Z,99485.13
2022-11-01T14:29:41.750Z,99488.19
2022-11-01T14:34:46.632Z,99481.34
2022-11-01T14:39:59.235Z,99485.19
2022-11-01T14:45:17.936Z,99477.22
2022-11-01T14:50:29.739Z,99481.25
2022-11-01T14:55:37.005Z,99475.53
2022-11-01T15:00:42.865Z,99470.84
2022-11-01T15:05:48.800Z,99476.13
2022-11-01T15:10:53.918Z,99468.97
2022-11-01T15:16:06.377Z,99481.28
2022-11-01T15:26:28.286Z,99479.66
2022-11-01T15:31:35.848Z,99471.22
2022-11-01T15:36:40.265Z,99477.72
2022-11-01T15:41:43.663Z,99480.63
2022-11-01T15:46:49.351Z,99481.84
2022-11-01T15:51:56.205Z,99486.44
2022-11-01T15:57:04.573Z,99484.06
2022-11-01T16:02:19.621Z,99493.69
2022-11-01T16:07:23.935Z,99487.84
2022-11-01T16:12:32.047Z,99493.97
2022-11-01T16:17:40.055Z,99502.09
2022-11-01T16:22:48.072Z,99509.41
2022-11-01T16:28:01.418Z,99510.25
2022-11-01T16:33:17.767Z,99518.38
2022-11-01T16:38:26.813Z,99512.19
2022-11-01T16:43:32.674Z,99514.00
2022-11-01T16:48:53.278Z,99517.69
2022-11-01T16:53:57.981Z,99518.72
2022-11-01T16:59:07.679Z,99514.34
2022-11-01T17:04:14.286Z,99517.78
2022-11-01T17:09:19.669Z,99504.84
2022-11-01T17:14:23.262Z,99512.00
2022-11-01T17:19:31.308Z,99507.69
2022-11-01T17:24:35.473Z,99505.09
2022-11-01T17:29:38.869Z,99509.50
2022-11-01T17:34:43.666Z,99505.28
2022-11-01T17:39:47.046Z,99496.53
2022-11-01T17:44:50.505Z,99499.22
2022-11-01T17:49:55.230Z,99501.88
2022-11-01T17:54:58.614Z,99505.22
2022-11-01T18:00:02.018Z,99490.47
2022-11-01T18:05:17.675Z,99487.75
2022-11-01T18:10:22.918Z,99490.38
2022-11-01T18:15:35.722Z,99481.66
2022-11-01T18:20:50.000Z,99477.28
2022-11-01T18:25:53.363Z,99470.38
2022-11-01T18:30:59.363Z,99480.06
2022-11-01T18:36:09.608Z,99471.38
2022-11-01T18:41:18.699Z,99471.63
2022-11-01T18:46:26.294Z,99468.88
2022-11-01T18:51:33.986Z,99471.59
2022-11-01T18:56:38.413Z,99471.53
2022-11-01T19:01:41.908Z,99470.75
2022-11-01T19:06:46.767Z,99469.84
2022-11-01T19:11:58.413Z,99475.94
2022-11-01T19:17:01.838Z,99466.50
2022-11-01T19:22:29.393Z,99471.63
2022-11-01T19:27:32.863Z,99475.06
2022-11-01T19:32:36.699Z,99471.63
2022-11-01T19:37:43.314Z,99484.75
2022-11-01T19:42:46.675Z,99477.75
2022-11-01T19:47:52.164Z,99475.94
2022-11-01T19:52:59.621Z,99472.50
2022-11-01T19:58:03.688Z,99473.41
2022-11-01T20:03:22.102Z,99473.28
2022-11-01T20:08:32.909Z,99469.84
2022-11-01T20:13:36.242Z,99472.50
2022-11-01T20:18:39.616Z,99464.66
2022-11-01T20:23:44.605Z,99461.97
2022-11-01T20:28:49.121Z,99461.19
2022-11-01T20:33:53.071Z,99452.47
2022-11-01T20:38:57.934Z,99455.06
2022-11-01T20:44:01.283Z,99451.53
2022-11-01T20:49:04.643Z,99443.81
2022-11-01T20:54:11.778Z,99451.63
2022-11-01T20:59:21.308Z,99449.06
2022-11-01T21:04:26.328Z,99440.31
2022-11-01T21:09:36.045Z,99439.47
2022-11-01T21:14:39.390Z,99436.88
2022-11-01T21:19:43.185Z,99435.09
2022-11-01T21:24:49.046Z,99436.88
2022-11-01T21:29:53.090Z,99433.41
2022-11-01T21:34:56.579Z,99425.56
2022-11-01T21:40:06.717Z,99424.81
2022-11-01T21:45:29.829Z,99421.28
2022-11-01T21:50:33.510Z,99419.53
2022-11-01T21:55:38.336Z,99416.09
2022-11-01T22:00:42.948Z,99418.78
2022-11-01T22:05:46.300Z,99411.84
2022-11-01T22:10:51.114Z,99403.97
2022-11-01T22:15:54.433Z,99399.53
2022-11-01T22:20:57.801Z,99405.69
2022-11-01T22:26:02.568Z,99389.97
2022-11-01T22:31:06.431Z,99390.00
2022-11-01T22:36:16.827Z,99392.66
2022-11-01T22:41:31.605Z,99390.91
2022-11-01T22:46:44.847Z,99385.72
2022-11-01T22:51:50.741Z,99369.13
2022-11-01T22:56:59.858Z,99370.81
2022-11-01T23:02:22.630Z,99363.94
2022-11-01T23:07:34.489Z,99362.16
2022-11-01T23:12:56.478Z,99359.63
2022-11-01T23:18:08.428Z,99356.97
2022-11-01T23:23:16.802Z,99356.19
2022-11-01T23:28:21.574Z,99359.63
2022-11-01T23:33:35.237Z,99349.19
2022-11-01T23:38:42.042Z,99345.63
2022-11-01T23:43:47.037Z,99345.59
2022-11-01T23:48:50.811Z,99337.84
2022-11-01T23:53:55.949Z,99338.69
2022-11-01T23:59:05.008Z,99337.91
